Midland, TX

4:23 PM CDT on July 03, 2015 (GMT -0500)
Dellwood | | Change Station
CLOSE
Current Station
Personal Weather Station
Location: Midland, TX
Elevation: 2841 ft
Nearby Weather Stations

Elev 2841 ft 32.00 °N, 102.12 °W | Updated 9 minutes ago

Mostly Cloudy
Mostly Cloudy
89.1 °F
Feels Like 90 °F
N
6.3
Wind Variable Wind from ENE

Today
High -- | Low -- °F
--% Chance of Precip.
Yesterday
High -- | Low -- °F
Precip. -- in
6:47 AM 8:58 PM
Waning Gibbous, 96% visible
Pressure 29.86 in
Visibility 10.0 miles
Clouds Scattered Clouds 4700 ft
Mostly Cloudy 6000 ft
Heat Index 90 °F
Dew Point 62 °F
Humidity 41%
Rainfall 0.00 in
Snow Depth Not available.
UV 6 out of 12
Pollen 4.60 out of 12
Air Quality Not available.
Flu Activity Not available.
METAR KMAF 032053Z 08008KT 10SM SCT047 BKN060 30/18 A3000 RMK AO2 SLP110 T03000178 58017

More Conditions Fewer Conditions

Pressure 29.86 in
Visibility 10.0 miles
Clouds Scattered Clouds 4700 ft
Mostly Cloudy 6000 ft
Heat Index 90 °F
Dew Point 62 °F
Humidity 41%
Rainfall 0.00 in
Snow Depth Not available.
UV 6 out of 12
Pollen 4.60 out of 12
Air Quality Not available.
Flu Activity Not available.
METAR KMAF 032053Z 08008KT 10SM SCT047 BKN060 30/18 A3000 RMK AO2 SLP110 T03000178 58017

More Conditions Fewer Conditions

10-Day Weather Forecast

×

Almanac

Astronomy

Jul. 03, 2015 Rise Set
Actual Time
Civil Twilight
Nautical Twilight
Astronomical Twilight
Moon
Length of Visible Light
Length of Day
Tomorrow will be .
, % of the Moon is Illuminated

Today's Extremes

State Highs State Lows

Community

WunderPhotos

Upload Photos

1,834,780 photos uploaded!

WunderBlogs® & News

Nearby

Air Quality

  Air Quality AQ Index Pollutant
Not available.

Snow Depth

Station Depth Elevation

Earthquake Activity

City Distance Mag. Time & Date
Minimum magnitude displayed is 2.5.

Coastal Water Temperatures

Place Temperature

Stations

Nearby Weather Stations

Station Location Temp. Windchill Dew Point Humidity Wind Precip. Elev Updated Type